GEC744 EDDM-RJBB
Flight info
| Callsign | GEC744 |
|---|---|
| Flight time | N/A |
| Altitude | 23000 |
| Route | KIRDI4N KIRDI DCT BUWOQ DCT OBFEZ/N0495F290 DCT STEIN DCT TEGRI DCT DINRO DCT UDROS UM859 KARDE UN644 ROLIN DCT TAGAR/N0492F310 DCT BT DCT BARAD M747 SUBUT T916 LEYLA N161 GASBI/K0913F310 N161 RUDIZ/K0902F330 N161 SARIN/K0900S1010 A368 FKG W188 LIKMI W270 DKO W69 HUR B339 LADIX W34 MUGLO/K0887S1070 W34 VAPGU W100 ORAVA W201 UNSEK A326 DONVO G597 AGAVO/N0480F350 Y644 EGOBA Y697 LANAT Y597 MIHOU Y361 SAEKI Y36 ATMUG |
| Aircraft | B77L/H-SDE1E2E3FGHIJ2J3J4J5M1RWXY/LB1D1 |
Departure
| Time | 2026-05-04 09:51 |
|---|---|
| Airport | Munich Airport (EDDM) |
Arrival
| Time | N/A |
|---|---|
| Airport | Kansai International Airport (RJBB) |
| Time | Latitude | Longitude | Altitude | Speed | Heading |
|---|---|---|---|---|---|
| 2026-05-04 09:27 | 48.34847 | 11.76737 | 1490 ft | 0 kts | 353° |
| 2026-05-04 09:43 | 48.34823 | 11.76741 | 1474 ft | 4 kts | 353° |
| 2026-05-04 09:43 | 48.34798 | 11.76746 | 1474 ft | 2 kts | 353° |
| 2026-05-04 09:44 | 48.34775 | 11.76753 | 1474 ft | 4 kts | 329° |
| 2026-05-04 09:44 | 48.34758 | 11.76779 | 1474 ft | 4 kts | 283° |
| 2026-05-04 09:44 | 48.34758 | 11.76816 | 1474 ft | 4 kts | 263° |
| 2026-05-04 09:46 | 48.34760 | 11.76843 | 1474 ft | 0 kts | 263° |
| 2026-05-04 09:46 | 48.34760 | 11.76839 | 1474 ft | 2 kts | 263° |
| 2026-05-04 09:46 | 48.34756 | 11.76793 | 1474 ft | 7 kts | 263° |
| 2026-05-04 09:47 | 48.34744 | 11.76698 | 1487 ft | 11 kts | 239° |
| 2026-05-04 09:47 | 48.34660 | 11.76669 | 1486 ft | 15 kts | 174° |
| 2026-05-04 09:49 | 48.34342 | 11.75103 | 1477 ft | 25 kts | 225° |
| 2026-05-04 09:49 | 48.34165 | 11.75105 | 1478 ft | 27 kts | 164° |
| 2026-05-04 09:49 | 48.34087 | 11.75347 | 1490 ft | 30 kts | 86° |
| 2026-05-04 09:51 | 48.34882 | 11.85964 | 3431 ft | 231 kts | 82° |
| 2026-05-04 09:51 | 48.35073 | 11.88442 | 3726 ft | 243 kts | 82° |
| 2026-05-04 09:51 | 48.35271 | 11.90981 | 4261 ft | 246 kts | 83° |
| 2026-05-04 09:51 | 48.35321 | 11.93571 | 4602 ft | 253 kts | 104° |
| 2026-05-04 09:52 | 48.34650 | 11.96073 | 4794 ft | 265 kts | 115° |
| 2026-05-04 09:52 | 48.33855 | 11.98641 | 5227 ft | 274 kts | 114° |
| 2026-05-04 09:52 | 48.33076 | 12.01272 | 5840 ft | 278 kts | 115° |
| 2026-05-04 09:52 | 48.32284 | 12.03948 | 6422 ft | 282 kts | 116° |
| 2026-05-04 09:53 | 48.31482 | 12.06663 | 6955 ft | 287 kts | 115° |
| 2026-05-04 09:53 | 48.30669 | 12.09415 | 7526 ft | 289 kts | 115° |
| 2026-05-04 09:53 | 48.29853 | 12.12185 | 8091 ft | 292 kts | 115° |
| 2026-05-04 09:53 | 48.29027 | 12.14989 | 8661 ft | 295 kts | 116° |
| 2026-05-04 09:54 | 48.28190 | 12.17815 | 9234 ft | 297 kts | 116° |
| 2026-05-04 09:54 | 48.27361 | 12.20619 | 9815 ft | 299 kts | 116° |
| 2026-05-04 09:54 | 48.26510 | 12.23495 | 10284 ft | 304 kts | 116° |
| 2026-05-04 09:54 | 48.25624 | 12.26480 | 10415 ft | 323 kts | 116° |
| 2026-05-04 09:55 | 48.24686 | 12.29630 | 10573 ft | 340 kts | 116° |
| 2026-05-04 09:55 | 48.23718 | 12.32962 | 10701 ft | 356 kts | 111° |
| 2026-05-04 09:55 | 48.23259 | 12.36668 | 10793 ft | 371 kts | 91° |
| 2026-05-04 09:55 | 48.23327 | 12.40592 | 11078 ft | 381 kts | 90° |
| 2026-05-04 09:56 | 48.23340 | 12.44597 | 11610 ft | 386 kts | 92° |
| 2026-05-04 09:56 | 48.23301 | 12.48636 | 12240 ft | 389 kts | 93° |
| 2026-05-04 09:56 | 48.23245 | 12.52710 | 12850 ft | 392 kts | 93° |
| 2026-05-04 09:56 | 48.23184 | 12.56824 | 13419 ft | 397 kts | 94° |
| 2026-05-04 09:57 | 48.22946 | 12.60956 | 13962 ft | 400 kts | 100° |
| 2026-05-04 09:57 | 48.22520 | 12.65094 | 14496 ft | 403 kts | 102° |
| 2026-05-04 09:57 | 48.22056 | 12.69250 | 15037 ft | 406 kts | 101° |
| 2026-05-04 09:57 | 48.21625 | 12.73446 | 15575 ft | 409 kts | 100° |
| 2026-05-04 09:58 | 48.21218 | 12.77691 | 16095 ft | 412 kts | 100° |
| 2026-05-04 09:58 | 48.20821 | 12.81969 | 16609 ft | 416 kts | 99° |
| 2026-05-04 09:58 | 48.20627 | 12.86263 | 17052 ft | 421 kts | 92° |
| 2026-05-04 10:00 | 48.21294 | 13.17747 | 20316 ft | 440 kts | 90° |
| 2026-05-04 10:00 | 48.21351 | 13.22360 | 20748 ft | 443 kts | 90° |
| 2026-05-04 10:02 | 48.21688 | 13.55295 | 23690 ft | 461 kts | 90° |
| 2026-05-04 10:04 | 48.21948 | 13.89568 | 25936 ft | 479 kts | 90° |
| 2026-05-04 10:04 | 48.21865 | 13.94565 | 26224 ft | 481 kts | 96° |
| 2026-05-04 10:04 | 48.21349 | 13.99474 | 26512 ft | 483 kts | 104° |
| 2026-05-04 10:04 | 48.20437 | 14.04389 | 26844 ft | 484 kts | 110° |
| 2026-05-04 10:05 | 48.19159 | 14.09056 | 27123 ft | 485 kts | 115° |
| 2026-05-04 10:05 | 48.17786 | 14.13620 | 27391 ft | 488 kts | 115° |
| 2026-05-04 10:05 | 48.16384 | 14.18272 | 27664 ft | 491 kts | 115° |
| 2026-05-04 10:05 | 48.14984 | 14.22946 | 27935 ft | 494 kts | 115° |
| 2026-05-04 10:06 | 48.13584 | 14.27655 | 28240 ft | 495 kts | 114° |
| 2026-05-04 10:06 | 48.12189 | 14.32373 | 28541 ft | 497 kts | 114° |
| 2026-05-04 10:06 | 48.10789 | 14.37120 | 28796 ft | 499 kts | 114° |
| 2026-05-04 10:08 | 48.02216 | 14.66045 | 29036 ft | 508 kts | 114° |
| 2026-05-04 10:08 | 48.00779 | 14.70857 | 29030 ft | 507 kts | 114° |
| 2026-05-04 10:08 | 47.98390 | 14.78834 | 29040 ft | 506 kts | 114° |